Date,TemperatureHighF,TemperatureAvgF,TemperatureLowF,DewpointHighF,DewpointAvgF,DewpointLowF,HumidityHigh,HumidityAvg,HumidityLow,PressureMaxIn,PressureMinIn,WindSpeedMaxMPH,WindSpeedAvgMPH,GustSpeedMaxMPH,PrecipitationSumIn
2013-1-1,37,30,17,28,18,4,83,62,45,29.92,29.66,14,6,0,0.00
2013-1-2,28,18,8,18,6,-7,67,58,46,30.11,29.88,16,6,0,0.00
2013-1-3,25,13,3,4,-2,-9,62,50,35,30.14,29.97,10,4,0,0.00
2013-1-4,37,28,15,26,19,2,84,70,55,29.97,29.75,16,7,0,0.00
2013-1-5,40,33,24,27,20,14,76,60,42,30.25,29.79,15,5,0,0.00
2013-1-6,43,32,23,31,25,15,89,74,62,30.21,29.90,11,4,0,0.00
2013-1-7,40,33,26,31,24,13,93,71,48,30.38,29.93,10,4,0,0.00
2013-1-8,45,35,26,30,27,23,100,75,54,30.35,30.21,18,7,0,0.00
2013-1-9,43,35,26,40,29,22,88,76,60,30.39,29.94,18,5,0,0.00
2013-1-10,46,40,31,34,27,23,73,60,49,30.52,29.96,25,6,0,0.00
2013-1-11,42,35,27,38,29,22,100,80,69,30.50,30.22,8,3,0,0.16
2013-1-14,61,51,40,57,41,30,100,69,57,30.22,29.93,11,4,0,0.00
2013-1-15,44,37,32,31,28,24,82,68,56,30.29,30.20,6,2,0,0.00
2013-1-16,33,32,31,33,28,24,100,87,73,30.24,29.81,6,2,0,0.00
2013-1-17,43,35,29,38,27,12,100,75,49,30.09,29.80,12,5,0,2.94
2013-1-18,28,21,15,11,0,-8,57,40,29,30.42,30.03,18,5,0,5.52
2013-1-19,45,34,19,31,22,6,75,60,50,30.37,29.86,26,9,0,5.52
2013-1-20,51,40,28,35,27,10,83,61,32,29.88,29.48,23,10,0,5.29
2013-1-21,31,26,19,20,9,0,87,50,37,30.05,29.78,13,5,0,0.00
2013-1-22,28,21,12,20,11,-3,88,66,31,30.06,29.75,15,4,0,0.00
2013-1-23,15,10,3,1,-8,-14,60,43,29,30.14,30.04,16,5,0,0.00
2013-1-24,17,8,0,-9,-12,-15,49,38,27,30.18,30.03,40,9,0,0.05
2013-1-25,24,15,7,-2,-6,-10,51,39,27,30.26,30.06,17,6,0,0.00
2013-1-26,25,18,11,8,2,-8,77,52,28,30.20,29.99,13,4,0,0.00
2013-1-27,29,20,13,3,-2,-8,62,40,23,30.45,30.19,14,6,0,0.00
2013-1-28,33,23,15,22,8,-6,92,55,27,30.45,30.03,8,3,0,0.00
2013-1-29,40,30,24,33,28,22,96,89,76,30.17,30.03,6,2,0,0.48
2013-1-30,34,34,34,34,33,32,100,96,94,30.14,30.08,5,1,0,0.15
2013-1-31,58,40,31,58,26,13,99,57,47,29.53,28.91,30,15,0,0.16
2013-2-1,34,29,20,16,11,6,58,47,35,30.05,29.53,26,9,0,0.00
2013-2-2,32,25,16,13,9,5,66,51,39,30.22,30.03,11,5,0,0.00
2013-2-3,29,26,21,23,19,12,90,76,53,30.03,29.70,13,3,0,0.00
2013-2-4,32,25,20,19,11,3,82,57,37,29.89,29.69,16,7,0,0.00
2013-2-5,31,24,16,17,9,3,69,54,41,30.02,29.89,13,4,0,0.00
2013-2-6,39,30,23,30,20,2,90,67,43,30.29,29.91,15,4,0,0.15
2013-2-7,29,23,15,4,-1,-7,48,35,21,30.51,30.28,10,4,0,0.09
2013-2-8,24,20,17,20,15,3,100,85,40,30.49,29.98,19,8,0,0.00
2013-2-9,24,19,14,24,14,7,100,82,72,30.16,29.65,18,7,0,0.00
2013-2-10,39,24,10,14,8,2,74,51,32,30.36,30.16,15,4,0,0.00
2013-2-11,36,28,22,36,16,2,100,64,39,30.33,29.67,7,3,0,0.18
2013-2-12,46,40,34,36,32,30,100,75,56,29.82,29.57,19,9,0,0.24
2013-2-13,46,37,29,30,26,22,85,66,49,29.84,29.71,14,4,0,0.00
2013-2-14,45,37,31,27,25,22,78,62,45,29.98,29.70,9,4,0,0.00
2013-2-15,51,40,29,37,31,23,94,72,54,29.98,29.87,20,7,0,0.00
2013-2-16,44,37,33,36,28,20,98,71,53,29.93,29.72,11,3,0,0.25
2013-2-17,32,23,17,20,12,3,91,64,41,29.72,29.31,42,12,0,0.22
2013-2-18,32,23,14,9,2,-2,66,42,26,30.11,29.61,34,11,0,0.26
2013-2-19,48,34,22,40,18,1,100,53,36,30.13,29.71,13,5,0,0.06
2013-2-20,37,33,27,37,21,16,99,62,48,29.73,29.52,20,9,0,0.90
2013-2-21,32,27,23,17,14,12,71,59,47,30.16,29.72,24,7,0,0.00
2013-2-22,45,32,21,28,22,14,87,67,44,30.37,30.16,16,5,0,0.00
2013-2-23,40,36,32,35,30,25,100,81,71,30.32,29.95,10,3,0,0.06
2013-2-24,34,34,34,34,34,34,99,99,99,29.95,29.95,4,4,0,0.00
2013-2-25,45,39,33,37,34,31,99,83,67,30.22,30.04,6,2,0,1.42
2013-2-26,45,38,32,40,34,30,100,84,70,30.33,30.17,11,4,0,0.00
2013-2-27,39,38,37,39,35,33,99,91,84,30.18,30.06,25,10,0,0.00
2013-2-28,50,44,36,41,34,23,100,70,36,29.61,29.51,9,3,0,0.00
2013-3-1,43,38,35,37,33,31,99,85,70,29.67,29.52,8,3,0,0.00
2013-3-2,48,39,32,36,31,28,90,75,57,29.65,29.59,10,3,0,0.00
2013-3-3,44,37,32,39,32,28,95,83,72,29.63,29.49,10,4,0,0.09
2013-3-4,41,35,30,29,26,23,80,71,58,29.71,29.55,19,7,0,0.00
2013-3-5,46,38,29,37,30,22,95,75,61,30.06,29.71,14,4,0,0.01
2013-3-6,39,38,36,37,34,30,100,88,73,30.14,30.06,32,14,0,1.07
2013-3-7,35,33,32,35,31,28,100,93,82,30.08,30.01,21,13,0,0.44
2013-3-8,43,40,32,34,27,23,98,60,48,30.15,30.01,15,8,0,0.04
2013-3-9,49,39,30,34,27,21,96,63,42,30.35,30.14,16,6,0,0.00
2013-3-10,48,38,27,38,33,27,100,80,62,30.40,30.29,9,4,0,0.00
2013-3-11,56,43,33,42,37,32,100,81,49,30.31,30.13,12,6,0,0.00
2013-3-12,52,49,42,52,48,41,100,97,78,30.14,29.85,18,6,0,0.05
2013-3-13,53,46,35,42,34,24,100,64,48,29.76,29.67,12,4,0,0.04
2013-3-14,40,33,23,25,20,6,79,60,47,29.80,29.65,18,6,0,0.00
2013-3-15,42,30,19,29,14,4,86,52,32,29.84,29.60,13,8,0,0.00
2013-3-16,41,34,26,29,19,13,85,55,35,29.88,29.62,13,4,0,0.00
2013-3-17,38,30,22,19,10,2,70,44,27,30.31,29.88,19,5,0,0.00
2013-3-18,44,29,15,24,11,0,70,47,29,30.45,30.24,10,4,0,0.00
2013-3-19,33,32,31,32,28,24,99,86,68,30.25,30.08,15,7,0,0.00
2013-3-20,41,36,29,35,27,21,99,70,60,29.79,29.67,16,6,0,0.72
2013-3-21,48,34,23,28,24,18,87,67,36,29.79,29.59,10,3,0,0.00
2013-3-22,46,36,28,27,23,20,91,63,36,29.69,29.59,11,4,0,0.00
2013-3-23,46,36,26,26,22,19,78,59,39,29.74,29.58,21,8,0,0.00
2013-3-24,52,40,30,33,27,22,77,60,38,29.79,29.71,13,3,0,0.00
2013-3-25,46,37,30,37,31,25,88,80,69,29.77,29.54,14,5,0,0.00
2013-3-26,52,41,32,31,26,20,82,56,33,29.76,29.54,13,3,0,0.00
2013-3-27,55,43,31,36,28,20,87,58,39,29.86,29.71,12,4,0,0.00
2013-3-28,52,43,36,40,36,32,100,77,55,29.99,29.86,8,1,0,0.26
2013-3-29,60,46,36,42,35,30,87,66,43,30.03,29.94,11,2,0,0.00
2013-3-30,60,47,36,36,28,15,83,52,28,30.08,29.98,8,3,0,0.00
2013-3-31,63,48,32,40,27,-100,75,46,33,30.11,29.80,19,5,0,0.01
2013-4-1,61,50,35,50,38,15,98,66,38,29.78,29.47,18,7,0,2.15
2013-4-2,43,36,29,20,15,13,56,43,32,29.89,29.75,24,8,0,0.00
2013-4-3,48,38,29,18,14,10,64,40,23,30.10,29.87,22,5,0,0.00
2013-4-4,58,43,28,24,19,14,61,40,26,30.25,29.99,14,2,0,0.00
2013-4-5,63,48,38,36,29,23,72,51,29,29.99,29.62,15,1,0,0.00
2013-4-6,48,38,30,23,11,4,54,34,21,30.32,29.85,20,4,0,0.00
2013-4-7,57,44,29,41,26,4,80,51,29,30.32,29.96,19,4,0,0.00
2013-4-8,68,53,43,46,42,38,99,69,36,30.10,29.92,10,1,0,0.00
2013-4-9,68,54,45,56,46,39,98,77,51,30.09,29.84,11,3,0,0.48
2013-4-10,63,54,45,55,49,43,100,86,70,29.99,29.85,8,3,0,1.19
2013-4-11,55,48,42,47,40,32,94,74,57,30.13,29.98,7,3,0,0.03
2013-4-12,42,38,36,37,32,28,100,80,59,30.20,29.98,18,9,0,1.25
2013-4-13,56,48,40,45,42,39,99,80,61,29.91,29.79,9,4,0,0.00
2013-4-14,56,47,40,44,38,32,98,71,46,30.19,29.91,13,5,0,0.00
2013-4-15,57,46,33,42,37,31,93,73,53,30.37,30.19,22,5,0,0.00
2013-4-16,68,54,39,55,46,37,98,77,52,30.39,30.01,24,10,0,0.00
2013-4-17,68,59,49,56,41,31,94,55,31,30.31,30.01,18,7,0,0.00
2013-4-18,60,52,40,43,36,27,68,55,43,30.43,30.15,27,7,0,0.00
2013-4-19,77,65,52,68,60,41,100,83,66,30.15,29.65,26,11,0,0.00
2013-4-20,60,54,44,55,40,26,100,62,42,30.16,29.62,17,8,0,0.78
2013-4-21,57,44,33,34,27,21,69,51,32,30.67,30.18,12,5,0,0.00
2013-4-22,53,42,33,38,32,25,82,68,44,30.76,30.60,17,7,0,0.00
2013-4-23,39,38,38,38,35,32,99,87,79,30.60,30.49,9,4,0,0.00
2013-4-24,73,65,53,62,56,51,99,75,65,29.90,29.77,20,7,0,0.13
2013-4-25,68,58,49,55,42,28,100,59,32,30.26,29.79,26,7,0,0.70
2013-4-26,60,51,42,45,37,28,86,59,44,30.42,30.26,13,5,0,0.10
2013-4-27,68,54,39,46,41,36,94,65,42,30.41,30.27,14,5,0,0.03
2013-4-28,68,56,42,51,42,37,85,62,40,30.32,30.22,14,5,0,0.00
2013-4-29,72,58,47,57,43,32,84,59,39,30.26,30.17,14,5,0,0.00
2013-4-30,73,60,46,44,36,27,64,43,29,30.37,30.24,10,4,0,0.00
2013-5-1,73,58,41,51,39,28,77,50,33,30.45,30.36,12,4,0,0.00
2013-5-2,79,56,45,55,43,35,80,63,38,30.50,30.35,17,5,0,0.00
2013-5-3,62,52,40,50,44,38,100,76,56,30.52,30.37,13,5,0,0.00
2013-5-4,62,51,42,50,43,38,98,76,49,30.37,30.30,13,5,0,0.12
2013-5-5,65,53,37,50,44,36,100,73,53,30.34,30.24,14,5,0,0.17
2013-5-6,68,54,39,56,48,38,100,82,59,30.28,30.15,11,4,0,0.00
2013-5-7,82,65,42,66,56,41,100,76,53,30.16,30.08,20,5,0,0.15
2013-5-8,76,67,57,69,62,56,100,87,70,30.21,30.10,15,5,0,0.26
2013-5-9,65,64,63,65,64,63,100,100,99,29.91,29.90,4,3,0,0.00
2013-5-10,82,69,57,72,59,-100,98,79,63,29.94,29.89,12,4,0,0.13
2013-5-11,72,68,57,69,66,57,100,92,87,29.90,29.70,18,8,0,0.96
2013-5-12,75,63,49,63,48,-100,98,61,48,29.78,29.54,12,5,0,1.13
2013-5-13,62,52,43,42,35,31,70,53,37,30.01,29.78,18,6,0,0.03
2013-5-14,62,51,38,43,36,32,85,58,37,30.04,29.94,12,3,0,0.18
2013-5-15,70,54,37,56,43,31,99,70,37,30.04,29.66,18,4,0,0.13
2013-5-16,82,64,54,57,19,-100,100,49,32,29.80,29.60,17,7,0,0.01
2013-5-17,70,60,50,49,41,-100,76,59,39,30.19,29.80,13,5,0,0.31
2013-5-20,82,76,67,73,69,65,99,80,69,30.01,29.91,10,3,0,0.74
2013-5-21,68,63,57,66,62,57,100,98,91,29.97,29.92,12,5,0,0.93
2013-5-22,61,59,55,60,58,55,100,95,90,29.95,29.91,8,5,0,0.05
2013-5-23,79,74,71,77,74,71,100,96,92,29.83,29.81,12,8,0,0.54
2013-5-24,76,66,56,76,63,55,100,91,84,29.80,29.69,11,4,0,0.18
2013-5-26,59,55,47,50,45,41,98,70,60,30.04,29.76,14,6,0,0.00
2013-5-27,74,59,41,51,44,38,100,62,35,30.16,30.05,11,4,0,0.15
2013-5-28,77,62,46,54,48,38,92,64,40,30.23,30.16,10,4,0,0.69
2013-5-29,56,54,54,56,53,52,99,96,92,30.17,30.14,3,2,0,0.01
2013-5-30,92,85,74,77,74,69,98,70,54,30.05,29.98,12,4,0,0.00
2013-5-31,99,86,68,79,74,68,100,70,49,30.07,29.91,14,4,0,0.01
2013-6-1,98,85,71,81,74,69,96,72,45,29.95,29.83,14,6,0,0.06
2013-6-2,92,82,72,80,72,-100,100,79,52,29.85,29.69,22,7,0,0.17
2013-6-3,85,76,62,76,68,52,100,76,58,29.81,29.73,11,5,0,0.19
2013-6-4,73,63,52,53,50,46,84,63,46,30.08,29.80,12,4,0,0.12
2013-6-5,82,65,50,60,52,45,94,66,34,30.16,30.08,10,4,0,0.00
2013-6-6,77,65,56,73,58,53,97,77,62,30.18,29.84,12,4,0,0.16
2013-6-7,60,58,56,57,56,56,100,95,86,30.12,30.06,5,2,0,0.26
2013-6-8,81,73,64,72,67,63,99,82,68,29.98,29.72,10,3,0,13.68
2013-6-9,84,75,62,69,63,57,100,68,50,30.15,29.97,9,3,0,0.08
2013-6-10,73,65,57,64,60,56,100,85,70,30.21,30.07,10,3,0,0.13
2013-6-11,62,61,60,62,61,60,100,98,96,29.64,29.59,7,4,0,0.01
2013-6-12,70,66,61,64,61,59,98,86,74,29.80,29.58,16,5,0,0.06
2013-6-13,73,65,57,64,61,56,100,88,68,29.79,29.72,7,2,0,0.35
2013-6-14,82,72,62,65,62,57,99,72,54,29.75,29.67,5,2,0,3.12
2013-6-15,83,67,54,62,55,50,100,71,39,29.91,29.76,9,3,0,0.26
2013-6-16,81,67,55,65,58,-100,93,75,52,29.92,29.70,14,4,0,0.00
2013-6-17,90,72,60,75,67,60,100,84,53,29.89,29.74,33,4,0,0.91
2013-6-18,77,68,60,69,65,60,100,89,71,29.95,29.91,8,3,0,0.35
2013-6-19,81,70,59,63,57,51,100,66,51,30.13,29.95,9,4,0,0.00
2013-6-20,83,64,52,64,55,49,92,75,51,30.24,30.13,7,3,0,0.11
2013-6-22,89,81,75,74,69,67,75,67,57,30.14,30.09,8,4,0,0.04